createdAt,value
2023-06-30T00:01:49.934Z,8.15
2023-06-30T00:04:19.260Z,7.78
2023-06-30T00:06:58.075Z,7.80
2023-06-30T00:09:25.879Z,8.02
2023-06-30T00:11:55.707Z,7.18
2023-06-30T00:14:23.457Z,8.80
2023-06-30T00:16:51.128Z,7.90
2023-06-30T00:19:20.107Z,7.72
2023-06-30T00:24:16.603Z,6.93
2023-06-30T00:26:43.736Z,8.18
2023-06-30T00:29:11.598Z,7.32
2023-06-30T00:31:38.799Z,7.53
2023-06-30T00:34:06.221Z,8.30
2023-06-30T00:36:33.421Z,7.68
2023-06-30T00:39:01.608Z,8.07
2023-06-30T00:41:30.139Z,8.00
2023-06-30T00:43:59.609Z,8.80
2023-06-30T00:46:27.415Z,8.68
2023-06-30T00:48:57.938Z,8.68
2023-06-30T00:51:25.383Z,8.77
2023-06-30T00:53:52.756Z,10.38
2023-06-30T00:56:20.355Z,9.10
2023-06-30T00:58:47.670Z,10.10
2023-06-30T01:01:40.415Z,10.35
2023-06-30T01:04:19.688Z,9.07
2023-06-30T01:07:18.522Z,9.75
2023-06-30T01:09:58.333Z,8.45
2023-06-30T01:12:27.040Z,9.45
2023-06-30T01:14:55.629Z,9.80
2023-06-30T01:17:26.315Z,10.20
2023-06-30T01:19:55.566Z,12.10
2023-06-30T01:22:42.335Z,11.25
2023-06-30T01:25:23.724Z,11.43
2023-06-30T01:27:51.922Z,10.93
2023-06-30T01:30:20.665Z,11.00
2023-06-30T01:32:51.768Z,10.90
2023-06-30T01:35:19.001Z,11.85
2023-06-30T01:37:46.153Z,12.75
2023-06-30T01:40:13.525Z,11.68
2023-06-30T01:42:41.408Z,11.85
2023-06-30T01:45:10.997Z,11.30
2023-06-30T01:47:38.436Z,11.32
2023-06-30T01:50:07.147Z,11.63
2023-06-30T01:52:34.458Z,10.27
2023-06-30T01:55:02.808Z,10.65
2023-06-30T01:57:32.410Z,11.43
2023-06-30T01:59:59.743Z,11.20
2023-06-30T02:02:26.973Z,12.63
2023-06-30T02:04:54.153Z,12.52
2023-06-30T02:07:21.713Z,10.85
2023-06-30T02:09:49.388Z,12.77
2023-06-30T02:12:17.009Z,12.60
2023-06-30T02:14:44.571Z,12.20
2023-06-30T02:17:12.719Z,11.68
2023-06-30T02:19:40.210Z,13.00
2023-06-30T02:22:07.478Z,11.68
2023-06-30T02:24:34.967Z,11.25
2023-06-30T02:27:02.135Z,12.00
2023-06-30T02:29:32.498Z,11.88
2023-06-30T02:31:59.658Z,12.15
2023-06-30T02:34:26.794Z,12.30
2023-06-30T02:36:54.085Z,12.13
2023-06-30T02:39:21.190Z,12.73
2023-06-30T02:41:48.349Z,12.40
2023-06-30T02:44:15.590Z,12.52
2023-06-30T02:46:42.798Z,12.88
2023-06-30T02:49:09.958Z,12.25
2023-06-30T02:51:37.131Z,11.73
2023-06-30T02:54:05.084Z,11.60
2023-06-30T02:56:34.016Z,11.77
2023-06-30T02:59:01.275Z,11.35
2023-06-30T03:01:28.535Z,11.48
2023-06-30T03:03:56.165Z,12.35
2023-06-30T03:06:27.422Z,10.80
2023-06-30T03:08:54.602Z,10.32
2023-06-30T03:11:26.442Z,11.32
2023-06-30T03:13:54.571Z,11.00
2023-06-30T03:16:23.200Z,10.90
2023-06-30T03:18:50.280Z,10.48
2023-06-30T03:21:17.497Z,10.73
2023-06-30T03:23:44.871Z,11.13
2023-06-30T03:26:12.064Z,10.70
2023-06-30T03:28:39.647Z,9.88
2023-06-30T03:31:08.095Z,11.05
2023-06-30T03:33:35.739Z,10.15
2023-06-30T03:36:02.896Z,10.75
2023-06-30T03:38:30.138Z,11.13
2023-06-30T03:40:57.415Z,10.90
2023-06-30T03:43:27.799Z,12.00
2023-06-30T03:45:54.967Z,11.95
2023-06-30T03:48:22.798Z,12.20
2023-06-30T03:50:53.821Z,12.82
2023-06-30T03:53:23.450Z,13.55
2023-06-30T03:55:50.577Z,13.13
2023-06-30T03:58:17.767Z,12.63
2023-06-30T04:00:45.048Z,12.30
2023-06-30T04:03:13.000Z,13.00
2023-06-30T04:05:40.185Z,12.65
2023-06-30T04:08:08.050Z,13.55
2023-06-30T04:10:35.251Z,12.27
2023-06-30T04:13:06.101Z,16.73
2023-06-30T04:15:33.293Z,17.48
2023-06-30T04:18:00.423Z,16.92
2023-06-30T04:20:28.160Z,13.50
2023-06-30T04:22:55.469Z,14.25
2023-06-30T04:25:22.893Z,12.98
2023-06-30T04:27:50.032Z,12.50
2023-06-30T04:30:17.243Z,12.32
2023-06-30T04:32:44.498Z,10.52
2023-06-30T04:35:11.867Z,9.65
2023-06-30T04:37:41.999Z,9.48
2023-06-30T04:40:10.158Z,8.40
2023-06-30T04:42:40.432Z,9.50
2023-06-30T04:45:08.006Z,9.52
2023-06-30T04:47:35.246Z,10.15
2023-06-30T04:50:02.601Z,9.35
2023-06-30T04:52:31.144Z,9.63
2023-06-30T04:54:58.435Z,11.00
2023-06-30T04:57:25.762Z,9.77
2023-06-30T04:59:55.410Z,9.50
2023-06-30T05:02:22.691Z,10.07
2023-06-30T05:04:50.503Z,9.63
2023-06-30T05:07:17.665Z,9.57
2023-06-30T05:09:45.434Z,11.20
2023-06-30T05:12:14.132Z,9.85
2023-06-30T05:14:41.245Z,10.75
2023-06-30T05:17:08.420Z,10.23
2023-06-30T05:19:35.627Z,10.32
2023-06-30T05:22:02.906Z,10.27
2023-06-30T05:24:30.382Z,10.70
2023-06-30T05:26:57.649Z,10.38
2023-06-30T05:29:24.926Z,11.23
2023-06-30T05:31:52.943Z,11.80
2023-06-30T05:34:20.152Z,10.80
2023-06-30T05:36:47.308Z,9.85
2023-06-30T05:39:15.556Z,9.75
2023-06-30T05:41:42.932Z,10.07
2023-06-30T05:44:10.913Z,8.77
2023-06-30T05:46:41.199Z,10.35
2023-06-30T05:49:08.429Z,10.82
2023-06-30T05:51:36.767Z,11.48
2023-06-30T05:54:04.337Z,10.95
2023-06-30T05:56:32.548Z,10.98
2023-06-30T05:59:00.111Z,11.68
2023-06-30T06:01:27.439Z,11.30
2023-06-30T06:03:55.281Z,11.63
2023-06-30T06:06:23.932Z,12.32
2023-06-30T06:08:51.149Z,12.15
2023-06-30T06:11:18.432Z,11.40
2023-06-30T06:13:45.660Z,11.25
2023-06-30T06:16:12.882Z,12.40
2023-06-30T06:18:40.296Z,13.60
2023-06-30T06:21:07.418Z,11.90
2023-06-30T06:23:34.536Z,13.10
2023-06-30T06:26:05.216Z,13.07
2023-06-30T06:28:32.370Z,13.32
2023-06-30T06:30:59.690Z,14.10
2023-06-30T06:33:27.141Z,13.32
2023-06-30T06:35:54.487Z,13.70
2023-06-30T06:38:21.726Z,13.13
2023-06-30T06:40:49.029Z,10.88
2023-06-30T06:43:16.324Z,11.13
2023-06-30T06:45:44.432Z,12.02
2023-06-30T06:48:20.216Z,11.27
2023-06-30T06:50:49.683Z,11.75
2023-06-30T06:53:22.804Z,11.38
2023-06-30T06:55:51.667Z,12.02
2023-06-30T06:58:19.872Z,12.05
2023-06-30T07:00:48.439Z,10.95
2023-06-30T07:03:16.659Z,11.30
2023-06-30T07:05:47.703Z,12.15
2023-06-30T07:08:16.569Z,11.15
2023-06-30T07:10:47.586Z,10.95
2023-06-30T07:13:19.627Z,10.90
2023-06-30T07:15:49.091Z,11.27
2023-06-30T07:18:20.436Z,9.82
2023-06-30T07:20:52.201Z,10.00
2023-06-30T07:23:20.152Z,9.65
2023-06-30T07:25:48.430Z,9.75
2023-06-30T07:28:16.189Z,9.52
2023-06-30T07:30:46.428Z,8.80
2023-06-30T07:33:14.408Z,9.43
2023-06-30T07:35:42.116Z,8.88
2023-06-30T07:38:09.442Z,8.48
2023-06-30T07:43:07.032Z,9.25
2023-06-30T07:45:34.212Z,9.02
2023-06-30T07:48:01.489Z,8.50
2023-06-30T07:50:29.164Z,9.40
2023-06-30T07:52:56.302Z,9.13
2023-06-30T07:55:24.203Z,9.23
2023-06-30T07:57:52.404Z,8.73
2023-06-30T08:00:20.010Z,9.35
2023-06-30T08:02:48.368Z,8.40
2023-06-30T08:05:16.055Z,8.60
2023-06-30T08:07:48.310Z,8.07
2023-06-30T08:10:17.571Z,8.65
2023-06-30T08:12:46.089Z,8.48
2023-06-30T08:15:13.364Z,9.45
2023-06-30T08:17:53.522Z,9.27
2023-06-30T08:20:26.825Z,8.95
2023-06-30T08:22:55.908Z,8.40
2023-06-30T08:27:51.833Z,8.73
2023-06-30T08:30:21.108Z,8.45
2023-06-30T08:32:51.265Z,9.45
2023-06-30T08:35:18.538Z,10.00
2023-06-30T08:37:47.564Z,9.77
2023-06-30T08:40:22.681Z,10.43
2023-06-30T08:42:54.248Z,12.00
2023-06-30T08:45:26.099Z,13.43
2023-06-30T08:47:54.290Z,14.45
2023-06-30T08:50:23.601Z,14.50
2023-06-30T08:52:51.824Z,14.35
2023-06-30T08:55:18.960Z,12.82
2023-06-30T08:57:47.361Z,12.23
2023-06-30T09:00:16.021Z,12.68
2023-06-30T09:02:45.116Z,12.88
2023-06-30T09:05:13.820Z,12.23
2023-06-30T09:07:57.212Z,11.38
2023-06-30T09:10:29.274Z,11.00
2023-06-30T09:12:58.587Z,11.57
2023-06-30T09:15:26.558Z,12.85
2023-06-30T09:17:54.730Z,10.35
2023-06-30T09:20:23.070Z,12.00
2023-06-30T09:22:51.608Z,11.95
2023-06-30T09:25:28.811Z,12.55
2023-06-30T09:27:57.050Z,10.07
2023-06-30T09:30:33.863Z,10.18
2023-06-30T09:33:01.323Z,11.73
2023-06-30T09:35:46.220Z,10.73
2023-06-30T09:38:16.051Z,12.10
2023-06-30T09:40:52.712Z,10.75
2023-06-30T09:43:21.894Z,11.60
2023-06-30T09:45:56.725Z,10.63
2023-06-30T09:48:36.259Z,10.63
2023-06-30T09:51:03.726Z,10.75
2023-06-30T09:53:41.720Z,11.65
2023-06-30T09:56:13.397Z,11.02
2023-06-30T09:58:40.726Z,11.75
2023-06-30T10:01:08.726Z,11.25
2023-06-30T10:03:46.852Z,10.55
2023-06-30T10:06:14.243Z,10.45
2023-06-30T10:08:41.497Z,10.80
2023-06-30T10:11:09.606Z,10.73
2023-06-30T10:13:37.290Z,10.90
2023-06-30T10:16:06.654Z,11.07
2023-06-30T10:18:42.942Z,10.50
2023-06-30T10:21:10.110Z,11.38
2023-06-30T10:23:38.670Z,10.77
2023-06-30T10:26:07.709Z,10.30
2023-06-30T10:31:03.882Z,9.02
2023-06-30T10:33:31.183Z,8.55
2023-06-30T10:36:00.363Z,9.35
2023-06-30T10:41:21.377Z,8.73
2023-06-30T10:44:08.187Z,8.93
2023-06-30T10:46:57.518Z,9.23
2023-06-30T10:49:27.503Z,9.32
2023-06-30T10:51:56.392Z,8.50
2023-06-30T10:54:31.569Z,8.73
2023-06-30T10:57:20.822Z,10.02
2023-06-30T11:00:03.135Z,11.15
2023-06-30T11:02:36.218Z,10.60
2023-06-30T11:05:29.978Z,10.95
2023-06-30T11:08:03.210Z,8.05
2023-06-30T11:10:33.604Z,7.68
2023-06-30T11:13:03.088Z,7.72
2023-06-30T11:15:45.636Z,8.50
2023-06-30T11:18:23.323Z,7.35
2023-06-30T11:21:04.360Z,7.03
2023-06-30T11:23:41.265Z,6.35
2023-06-30T11:26:19.317Z,7.50
2023-06-30T11:28:52.072Z,7.57
2023-06-30T11:31:19.507Z,7.57
2023-06-30T11:33:47.176Z,8.30
2023-06-30T11:36:19.178Z,7.57
2023-06-30T11:38:51.121Z,8.30
2023-06-30T11:41:20.779Z,9.30
2023-06-30T11:46:19.084Z,8.25
2023-06-30T11:48:46.232Z,9.23
2023-06-30T11:51:13.776Z,9.05
2023-06-30T11:53:44.526Z,8.75
2023-06-30T11:56:11.732Z,8.55
2023-06-30T11:58:43.814Z,9.48
2023-06-30T12:01:10.955Z,9.05
2023-06-30T12:03:38.178Z,9.50
2023-06-30T12:06:05.800Z,9.43
2023-06-30T12:08:36.570Z,10.25
2023-06-30T12:11:08.303Z,11.05
2023-06-30T12:13:35.550Z,11.05
2023-06-30T12:16:04.487Z,11.27
2023-06-30T12:20:59.052Z,10.55
2023-06-30T12:23:29.905Z,10.93
2023-06-30T12:25:58.292Z,11.15
2023-06-30T12:28:25.431Z,11.35
2023-06-30T12:30:52.629Z,11.27
2023-06-30T12:33:23.525Z,10.05
2023-06-30T12:35:51.313Z,10.07
2023-06-30T12:38:19.348Z,9.95
2023-06-30T12:40:46.785Z,10.68
2023-06-30T12:43:14.088Z,6.63
2023-06-30T12:45:41.258Z,9.82
2023-06-30T12:48:08.383Z,10.93
2023-06-30T12:50:35.756Z,11.43
2023-06-30T12:53:03.346Z,9.90
2023-06-30T12:55:30.745Z,10.35
2023-06-30T12:57:57.839Z,10.85
2023-06-30T13:00:24.936Z,11.63
2023-06-30T13:02:52.095Z,8.57
2023-06-30T13:05:19.508Z,8.45
2023-06-30T13:07:46.648Z,6.90
2023-06-30T13:10:14.984Z,8.00
2023-06-30T13:12:42.438Z,9.13
2023-06-30T13:15:10.566Z,9.35
2023-06-30T13:17:37.953Z,4.82
2023-06-30T13:20:06.307Z,5.55
2023-06-30T13:22:34.054Z,3.80
2023-06-30T13:25:02.569Z,5.95
2023-06-30T13:27:32.366Z,5.18
2023-06-30T13:30:00.362Z,4.43
2023-06-30T13:32:27.655Z,3.80
2023-06-30T13:34:56.055Z,3.63
2023-06-30T13:37:23.254Z,4.65
2023-06-30T13:39:50.449Z,4.78
2023-06-30T13:42:17.576Z,4.25
2023-06-30T13:44:45.145Z,4.97
2023-06-30T13:47:12.301Z,4.50
2023-06-30T13:49:39.453Z,5.18
2023-06-30T13:52:06.933Z,5.80
2023-06-30T13:54:36.590Z,5.22
2023-06-30T13:57:03.994Z,4.75
2023-06-30T13:59:31.189Z,6.20
2023-06-30T14:01:58.474Z,5.22
2023-06-30T14:04:28.997Z,4.78
2023-06-30T14:07:05.857Z,4.68
2023-06-30T14:09:33.150Z,5.43
2023-06-30T14:12:00.481Z,4.85
2023-06-30T14:14:27.630Z,4.18
2023-06-30T14:16:54.934Z,3.88
2023-06-30T14:19:22.093Z,4.28
2023-06-30T14:21:49.379Z,4.47
2023-06-30T14:24:16.594Z,4.25
2023-06-30T14:26:43.753Z,5.28
2023-06-30T14:29:10.993Z,4.72
2023-06-30T14:31:38.246Z,4.95
2023-06-30T14:34:05.455Z,4.97
2023-06-30T14:36:32.555Z,4.55
2023-06-30T14:38:59.697Z,4.82
2023-06-30T14:41:26.904Z,5.20
2023-06-30T14:43:54.245Z,4.88
2023-06-30T14:46:21.487Z,4.97
2023-06-30T14:48:50.015Z,4.97
2023-06-30T14:51:17.254Z,4.90
2023-06-30T14:53:44.868Z,5.28
2023-06-30T14:56:12.967Z,5.60
2023-06-30T14:58:40.160Z,5.03
2023-06-30T15:01:07.476Z,5.60
2023-06-30T15:03:34.806Z,5.65
2023-06-30T15:06:02.244Z,6.05
2023-06-30T15:08:29.422Z,5.90
2023-06-30T15:10:56.581Z,5.50
2023-06-30T15:13:24.002Z,6.55
2023-06-30T15:15:52.126Z,5.75
2023-06-30T15:18:19.331Z,5.93
2023-06-30T15:20:48.687Z,6.15
2023-06-30T15:23:16.078Z,5.43
2023-06-30T15:25:43.353Z,6.13
2023-06-30T15:28:10.660Z,5.93
2023-06-30T15:30:37.791Z,5.95
2023-06-30T15:33:08.457Z,11.38
2023-06-30T15:35:36.213Z,9.52
2023-06-30T15:38:04.367Z,7.70
2023-06-30T15:40:33.592Z,6.05
2023-06-30T15:43:02.705Z,6.15
2023-06-30T15:45:31.268Z,6.03
2023-06-30T15:47:58.988Z,6.65
2023-06-30T15:50:26.686Z,5.70
2023-06-30T15:52:53.857Z,6.60
2023-06-30T15:55:21.651Z,6.07
2023-06-30T15:57:48.869Z,6.32
2023-06-30T16:00:16.442Z,6.60
2023-06-30T16:02:43.752Z,7.05
2023-06-30T16:05:11.294Z,6.45
2023-06-30T16:07:38.995Z,6.35
2023-06-30T16:10:06.776Z,6.45
2023-06-30T16:12:34.693Z,6.57
2023-06-30T16:15:05.154Z,6.15
2023-06-30T16:17:36.685Z,5.88
2023-06-30T16:20:05.998Z,7.70
2023-06-30T16:22:35.287Z,6.47
2023-06-30T16:25:02.697Z,6.28
2023-06-30T16:27:34.010Z,7.25
2023-06-30T16:30:31.725Z,5.85
2023-06-30T16:32:59.693Z,7.25
2023-06-30T16:35:28.608Z,6.53
2023-06-30T16:37:58.235Z,10.18
2023-06-30T16:40:25.549Z,7.22
2023-06-30T16:42:54.031Z,7.93
2023-06-30T16:45:21.669Z,7.30
2023-06-30T16:47:49.120Z,7.38
2023-06-30T16:50:16.801Z,8.07
2023-06-30T16:52:44.301Z,7.43
2023-06-30T16:55:12.477Z,9.60
2023-06-30T16:57:40.439Z,7.60
2023-06-30T17:00:09.692Z,7.78
2023-06-30T17:02:39.048Z,8.15
2023-06-30T17:05:07.419Z,8.18
2023-06-30T17:07:35.711Z,7.30
2023-06-30T17:10:05.863Z,8.02
2023-06-30T17:12:34.885Z,8.57
2023-06-30T17:15:02.881Z,8.43
2023-06-30T17:17:33.989Z,9.25
2023-06-30T17:20:03.900Z,8.35
2023-06-30T17:22:33.411Z,8.52
2023-06-30T17:25:05.435Z,8.48
2023-06-30T17:27:34.261Z,8.68
2023-06-30T17:30:01.626Z,8.57
2023-06-30T17:32:33.704Z,9.30
2023-06-30T17:35:01.029Z,9.27
2023-06-30T17:37:30.324Z,8.73
2023-06-30T17:39:57.553Z,8.95
2023-06-30T17:42:25.122Z,8.27
2023-06-30T17:44:52.349Z,8.20
2023-06-30T17:47:20.645Z,7.97
2023-06-30T17:49:48.442Z,10.40
2023-06-30T17:52:16.376Z,9.40
2023-06-30T17:54:43.708Z,8.35
2023-06-30T17:57:10.850Z,8.88
2023-06-30T17:59:37.970Z,9.35
2023-06-30T18:02:06.469Z,8.90
2023-06-30T18:04:34.041Z,8.95
2023-06-30T18:07:13.845Z,8.65
2023-06-30T18:09:43.557Z,7.97
2023-06-30T18:12:12.130Z,9.48
2023-06-30T18:14:39.953Z,8.55
2023-06-30T18:17:07.193Z,9.38
2023-06-30T18:19:34.384Z,9.38
2023-06-30T18:22:01.580Z,8.23
2023-06-30T18:24:28.871Z,8.30
2023-06-30T18:26:56.097Z,8.32
2023-06-30T18:29:27.103Z,8.25
2023-06-30T18:31:57.354Z,8.20
2023-06-30T18:34:26.617Z,7.88
2023-06-30T18:36:53.954Z,8.38
2023-06-30T18:39:21.420Z,8.32
2023-06-30T18:41:48.793Z,10.63
2023-06-30T18:44:16.402Z,8.55
2023-06-30T18:46:43.959Z,8.25
2023-06-30T18:49:12.985Z,7.63
2023-06-30T18:51:43.056Z,7.70
2023-06-30T18:54:10.977Z,10.07
2023-06-30T18:56:38.812Z,9.75
2023-06-30T18:59:06.367Z,9.02
2023-06-30T19:01:34.561Z,8.73
2023-06-30T19:04:02.515Z,8.02
2023-06-30T19:06:30.186Z,10.13
2023-06-30T19:08:57.403Z,8.30
2023-06-30T19:11:24.765Z,8.50
2023-06-30T19:13:52.371Z,9.75
2023-06-30T19:16:20.000Z,9.30
2023-06-30T19:18:47.507Z,9.65
2023-06-30T19:21:15.658Z,7.40
2023-06-30T19:23:43.191Z,9.23
2023-06-30T19:26:11.982Z,8.05
2023-06-30T19:28:42.390Z,8.38
2023-06-30T19:31:09.663Z,8.40
2023-06-30T19:33:38.129Z,8.85
2023-06-30T19:36:06.169Z,9.25
2023-06-30T19:38:33.829Z,8.55
2023-06-30T19:41:01.064Z,8.82
2023-06-30T19:43:28.290Z,8.15
2023-06-30T19:45:55.569Z,8.15
2023-06-30T19:48:22.791Z,8.02
2023-06-30T19:50:50.131Z,7.78
2023-06-30T19:53:17.687Z,7.75
2023-06-30T19:55:46.035Z,8.57
2023-06-30T20:03:09.241Z,8.07
2023-06-30T20:05:37.050Z,8.05
2023-06-30T20:08:04.963Z,9.23
2023-06-30T20:10:32.254Z,8.27
2023-06-30T20:13:02.320Z,8.85
2023-06-30T20:15:29.809Z,9.35
2023-06-30T20:17:57.081Z,8.90
2023-06-30T20:20:24.369Z,9.13
2023-06-30T20:23:01.823Z,9.57
2023-06-30T20:25:29.100Z,9.52
2023-06-30T20:27:56.360Z,9.23
2023-06-30T20:30:23.554Z,9.90
2023-06-30T20:32:50.924Z,11.02
2023-06-30T20:35:20.246Z,10.60
2023-06-30T20:37:50.117Z,10.38
2023-06-30T20:40:17.284Z,9.85
2023-06-30T20:42:44.710Z,9.73
2023-06-30T20:45:12.184Z,9.73
2023-06-30T20:47:40.000Z,10.15
2023-06-30T20:50:09.341Z,11.15
2023-06-30T20:52:37.148Z,9.90
2023-06-30T20:55:04.540Z,10.90
2023-06-30T20:57:31.981Z,9.27
2023-06-30T20:59:59.328Z,10.48
2023-06-30T21:02:26.451Z,8.73
2023-06-30T21:04:55.745Z,10.18
2023-06-30T21:07:23.045Z,11.05
2023-06-30T21:09:50.204Z,9.07
2023-06-30T21:12:17.646Z,9.40
2023-06-30T21:14:47.798Z,10.30
2023-06-30T21:17:16.466Z,9.45
2023-06-30T21:19:43.605Z,9.98
2023-06-30T21:22:10.900Z,9.35
2023-06-30T21:24:38.268Z,10.07
2023-06-30T21:27:05.915Z,10.23
2023-06-30T21:29:33.084Z,10.20
2023-06-30T21:32:00.957Z,8.85
2023-06-30T21:34:28.148Z,9.93
2023-06-30T21:36:55.328Z,9.98
2023-06-30T21:39:22.491Z,9.20
2023-06-30T21:41:49.673Z,9.05
2023-06-30T21:44:16.908Z,9.23
2023-06-30T21:46:44.216Z,9.25
2023-06-30T21:49:11.506Z,9.70
2023-06-30T21:51:38.720Z,9.70
2023-06-30T21:54:06.802Z,9.05
2023-06-30T21:56:34.634Z,9.38
2023-06-30T21:59:03.163Z,8.75
2023-06-30T22:01:39.855Z,9.05
2023-06-30T22:04:08.104Z,8.48
2023-06-30T22:06:35.477Z,8.38
2023-06-30T22:09:07.453Z,8.40
2023-06-30T22:11:42.632Z,7.97
2023-06-30T22:14:09.885Z,7.05
2023-06-30T22:16:36.957Z,7.68
2023-06-30T22:19:04.083Z,7.28
2023-06-30T22:21:31.148Z,7.85
2023-06-30T22:23:58.365Z,6.05
2023-06-30T22:26:25.494Z,5.90
2023-06-30T22:28:52.662Z,5.93
2023-06-30T22:31:19.796Z,5.82
2023-06-30T22:33:46.908Z,6.72
2023-06-30T22:36:14.310Z,5.72
2023-06-30T22:38:41.420Z,6.63
2023-06-30T22:41:08.620Z,6.25
2023-06-30T22:43:35.725Z,6.00
2023-06-30T22:46:02.904Z,6.32
2023-06-30T22:48:30.096Z,5.50
2023-06-30T22:50:58.804Z,5.70
2023-06-30T22:53:25.953Z,6.00
2023-06-30T22:55:53.144Z,5.65
2023-06-30T22:58:20.257Z,6.70
2023-06-30T23:00:47.610Z,7.47
2023-06-30T23:03:15.077Z,7.13
2023-06-30T23:05:42.223Z,6.43
2023-06-30T23:08:09.478Z,7.38
2023-06-30T23:10:36.574Z,7.15
2023-06-30T23:13:03.744Z,6.35
2023-06-30T23:15:30.856Z,6.75
2023-06-30T23:17:58.051Z,6.20
2023-06-30T23:20:25.645Z,5.82
2023-06-30T23:22:52.918Z,6.60
2023-06-30T23:25:24.288Z,6.40
2023-06-30T23:27:55.575Z,6.30
2023-06-30T23:30:27.045Z,5.72
2023-06-30T23:32:58.592Z,6.18
2023-06-30T23:35:26.843Z,6.90
2023-06-30T23:37:54.225Z,6.47
2023-06-30T23:40:21.461Z,6.60
2023-06-30T23:42:48.923Z,6.85
2023-06-30T23:45:16.130Z,7.22
2023-06-30T23:47:43.319Z,7.10
2023-06-30T23:50:11.511Z,7.60
2023-06-30T23:52:38.634Z,7.40
2023-06-30T23:55:06.625Z,7.05
2023-06-30T23:57:34.005Z,6.68
